| time (UTC) | temp C | wind direction | speed KPH | gust KPH | rain 1hr cm | rain 24hr cm | rain mn cm | humidity % | barometer mb |
| 20260510192749 | 20 | 278 | 12.9 | 14.5 | 0.00 | 0.00 | 0.00 | 48 | 1015.0 |
| 20260510192244 | 20 | 316 | 4.8 | 16.1 | 0.00 | 0.00 | 0.00 | 49 | 1015.0 |
| 20260510191741 | 20 | 298 | 8.0 | 12.9 | 0.00 | 0.00 | 0.00 | 48 | 1015.0 |
| 20260510191236 | 20 | 315 | 8.0 | 9.7 | 0.00 | 0.00 | 0.00 | 48 | 1014.7 |
| 20260510190734 | 20 | 162 | 11.3 | 16.1 | 0.00 | 0.00 | 0.00 | 47 | 1014.6 |
| 20260510190231 | 20 | 282 | 11.3 | 14.5 | 0.00 | 0.00 | 0.00 | 47 | 1014.6 |
| 20260510185727 | 20 | 297 | 8.0 | 11.3 | 0.00 | 0.00 | 0.00 | 46 | 1014.5 |
| 20260510185220 | 21 | 313 | 11.3 | 14.5 | 0.00 | 0.00 | 0.00 | 45 | 1014.6 |
| 20260510184716 | 21 | 280 | 11.3 | 17.7 | 0.00 | 0.00 | 0.00 | 45 | 1014.8 |
| 20260510184213 | 22 | 327 | 11.3 | 16.1 | 0.00 | 0.00 | 0.00 | 45 | 1014.6 |
| 20260510183708 | 21 | 7 | 3.2 | 12.9 | 0.00 | 0.00 | 0.00 | 47 | 1014.3 |
| 20260510183203 | 21 | 45 | 8.0 | 20.9 | 0.00 | 0.00 | 0.00 | 46 | 1014.6 |
| 20260510182700 | 21 | 295 | 14.5 | 17.7 | 0.00 | 0.00 | 0.00 | 46 | 1014.6 |
| 20260510182155 | 21 | 311 | 22.5 | 32.2 | 0.00 | 0.00 | 0.00 | 46 | 1014.7 |
| 20260510181653 | 22 | 4 | 11.3 | 16.1 | 0.00 | 0.00 | 0.00 | 45 | 1014.7 |
| 20260510181149 | 21 | 280 | 20.9 | 25.7 | 0.00 | 0.00 | 0.00 | 45 | 1014.8 |
| 20260510180645 | 20 | 269 | 19.3 | 22.5 | 0.00 | 0.00 | 0.00 | 46 | 1014.7 |
| 20260510180143 | 21 | 274 | 20.9 | 27.4 | 0.00 | 0.00 | 0.00 | 46 | 1014.7 |
| 20260510175639 | 20 | 294 | 6.4 | 12.9 | 0.00 | 0.00 | 0.00 | 47 | 1015.0 |
| 20260510175135 | 20 | 257 | 20.9 | 27.4 | 0.00 | 0.00 | 0.00 | 46 | 1014.9 |
| 20260510174632 | 21 | 301 | 17.7 | 24.1 | 0.00 | 0.00 | 0.00 | 46 | 1014.9 |
| 20260510174130 | 21 | 296 | 19.3 | 20.9 | 0.00 | 0.00 | 0.00 | 44 | 1014.9 |
| 20260510173625 | 20 | 319 | 14.5 | 16.1 | 0.00 | 0.00 | 0.00 | 48 | 1014.8 |
| 20260510173122 | 21 | 283 | 9.7 | 17.7 | 0.00 | 0.00 | 0.00 | 47 | 1015.0 |
| 20260510172617 | 20 | 291 | 6.4 | 11.3 | 0.00 | 0.00 | 0.00 | 49 | 1015.0 |
| 20260510172114 | 20 | 83 | 4.8 | 11.3 | 0.00 | 0.00 | 0.00 | 47 | 1014.8 |
| 20260510171611 | 20 | 335 | 11.3 | 20.9 | 0.00 | 0.00 | 0.00 | 47 | 1015.0 |
| 20260510171108 | 20 | 300 | 22.5 | 29.0 | 0.00 | 0.00 | 0.00 | 49 | 1015.2 |
| 20260510170604 | 20 | 297 | 24.1 | 29.0 | 0.00 | 0.00 | 0.00 | 48 | 1015.2 |
| 20260510170101 | 20 | 176 | 0.0 | 1.6 | 0.00 | 0.00 | 0.00 | 50 | 1015.2 |
| 20260510165557 | 20 | 310 | 19.3 | 24.1 | 0.00 | 0.00 | 0.00 | 51 | 1015.4 |
| 20260510165052 | 20 | 316 | 19.3 | 25.7 | 0.00 | 0.00 | 0.00 | 52 | 1015.2 |
| 20260510164549 | 20 | 299 | 17.7 | 22.5 | 0.00 | 0.00 | 0.00 | 51 | 1015.2 |
| 20260510164046 | 20 | 323 | 11.3 | 27.4 | 0.00 | 0.00 | 0.00 | 52 | 1015.4 |
| 20260510163536 | 20 | 79 | 1.6 | 3.2 | 0.00 | 0.00 | 0.00 | 52 | 1015.1 |
| 20260510163033 | 20 | 321 | 17.7 | 24.1 | 0.00 | 0.00 | 0.00 | 52 | 1015.0 |
| 20260510162528 | 20 | 274 | 16.1 | 25.7 | 0.00 | 0.00 | 0.00 | 50 | 1015.1 |
| 20260510162025 | 20 | 312 | 4.8 | 11.3 | 0.00 | 0.00 | 0.00 | 52 | 1015.2 |
| 20260510161520 | 20 | 338 | 6.4 | 12.9 | 0.00 | 0.00 | 0.00 | 53 | 1015.2 |
| 20260510161017 | 20 | 339 | 1.6 | 3.2 | 0.00 | 0.00 | 0.00 | 55 | 1015.3 |
| 20260510160515 | 20 | 292 | 8.0 | 12.9 | 0.00 | 0.00 | 0.00 | 54 | 1015.3 |
| 20260510160014 | 20 | 94 | 4.8 | 16.1 | 0.00 | 0.00 | 0.00 | 57 | 1015.4 |
| 20260510155510 | 20 | 62 | 4.8 | 8.0 | 0.00 | 0.00 | 0.00 | 56 | 1015.2 |
| 20260510155007 | 20 | 304 | 16.1 | 24.1 | 0.00 | 0.00 | 0.00 | 54 | 1015.2 |
| 20260510154503 | 19 | 278 | 9.7 | 14.5 | 0.00 | 0.00 | 0.00 | 57 | 1015.2 |
| 20260510154003 | 18 | 349 | 20.9 | 24.1 | 0.00 | 0.00 | 0.00 | 56 | 1015.1 |
| 20260510153458 | 19 | 283 | 12.9 | 29.0 | 0.00 | 0.00 | 0.00 | 56 | 1015.3 |
| 20260510152956 | 19 | 320 | 8.0 | 14.5 | 0.00 | 0.00 | 0.00 | 56 | 1015.4 |
| 20260510152453 | 19 | 44 | 1.6 | 9.7 | 0.00 | 0.00 | 0.00 | 57 | 1015.1 |
| 20260510151949 | 18 | 333 | 14.5 | 16.1 | 0.00 | 0.00 | 0.00 | 57 | 1014.9 |
| 20260510151446 | 18 | 345 | 16.1 | 17.7 | 0.00 | 0.00 | 0.00 | 56 | 1015.1 |
| 20260510150942 | 18 | 288 | 17.7 | 22.5 | 0.00 | 0.00 | 0.00 | 56 | 1015.2 |
| 20260510150438 | 18 | 326 | 8.0 | 14.5 | 0.00 | 0.00 | 0.00 | 56 | 1015.0 |
| 20260510145933 | 18 | 192 | 3.2 | 9.7 | 0.00 | 0.00 | 0.00 | 57 | 1015.1 |
| 20260510145425 | 18 | 295 | 6.4 | 12.9 | 0.00 | 0.00 | 0.00 | 56 | 1014.9 |
| 20260510144921 | 18 | 302 | 4.8 | 14.5 | 0.00 | 0.00 | 0.00 | 57 | 1015.0 |
| 20260510144418 | 18 | 232 | 4.8 | 11.3 | 0.00 | 0.00 | 0.00 | 57 | 1014.8 |
| 20260510143913 | 18 | 274 | 9.7 | 14.5 | 0.00 | 0.00 | 0.00 | 57 | 1015.1 |
| 20260510143409 | 18 | 248 | 17.7 | 22.5 | 0.00 | 0.00 | 0.00 | 55 | 1015.0 |
| 20260510142907 | 17 | 38 | 3.2 | 4.8 | 0.00 | 0.00 | 0.00 | 58 | 1014.8 |
| 20260510142403 | 17 | 8 | 12.9 | 14.5 | 0.00 | 0.00 | 0.00 | 58 | 1014.7 |
| 20260510141900 | 17 | 315 | 9.7 | 12.9 | 0.00 | 0.00 | 0.00 | 59 | 1014.7 |
| 20260510141357 | 17 | 358 | 1.6 | 8.0 | 0.00 | 0.00 | 0.00 | 60 | 1014.6 |
| 20260510140854 | 17 | 298 | 20.9 | 25.7 | 0.00 | 0.00 | 0.00 | 59 | 1014.7 |
| 20260510140349 | 17 | 288 | 8.0 | 17.7 | 0.00 | 0.00 | 0.00 | 62 | 1014.8 |
| 20260510135843 | 17 | 286 | 3.2 | 4.8 | 0.00 | 0.00 | 0.00 | 62 | 1014.8 |
| 20260510135339 | 16 | 289 | 14.5 | 20.9 | 0.00 | 0.00 | 0.00 | 61 | 1014.7 |
| 20260510134837 | 16 | 287 | 22.5 | 25.7 | 0.00 | 0.00 | 0.00 | 61 | 1014.7 |
| 20260510134334 | 16 | 261 | 3.2 | 9.7 | 0.00 | 0.00 | 0.00 | 62 | 1014.9 |
| 20260510133830 | 16 | 350 | 6.4 | 14.5 | 0.00 | 0.00 | 0.00 | 62 | 1014.8 |
| 20260510133326 | 16 | 287 | 16.1 | 22.5 | 0.00 | 0.00 | 0.00 | 61 | 1014.6 |
| 20260510132822 | 16 | 293 | 19.3 | 24.1 | 0.00 | 0.00 | 0.00 | 62 | 1014.5 |
| 20260510132320 | 16 | 322 | 4.8 | 8.0 | 0.00 | 0.00 | 0.00 | 62 | 1014.8 |
| 20260510131817 | 16 | 90 | 0.0 | 1.6 | 0.00 | 0.00 | 0.00 | 63 | 1014.7 |
| 20260510131314 | 16 | 23 | 4.8 | 12.9 | 0.00 | 0.00 | 0.00 | 63 | 1014.8 |
| 20260510130810 | 16 | 299 | 11.3 | 16.1 | 0.00 | 0.00 | 0.00 | 63 | 1014.9 |
| 20260510130308 | 16 | 140 | 11.3 | 16.1 | 0.00 | 0.00 | 0.00 | 62 | 1014.5 |
| 20260510125804 | 16 | 313 | 8.0 | 12.9 | 0.00 | 0.00 | 0.00 | 62 | 1014.6 |
| 20260510125300 | 16 | 269 | 4.8 | 8.0 | 0.00 | 0.00 | 0.00 | 63 | 1014.6 |
| 20260510124757 | 16 | 335 | 3.2 | 8.0 | 0.00 | 0.00 | 0.00 | 64 | 1014.7 |
| 20260510124254 | 15 | 316 | 3.2 | 9.7 | 0.00 | 0.00 | 0.00 | 65 | 1014.8 |
| 20260510123749 | 15 | 308 | 9.7 | 17.7 | 0.00 | 0.00 | 0.00 | 66 | 1014.7 |
| 20260510123246 | 15 | 301 | 0.0 | 0.0 | 0.00 | 0.00 | 0.00 | 68 | 1014.3 |
| 20260510122742 | 15 | 280 | 1.6 | 9.7 | 0.00 | 0.00 | 0.00 | 67 | 1014.3 |
| 20260510122238 | 15 | 273 | 8.0 | 12.9 | 0.00 | 0.00 | 0.00 | 68 | 1014.3 |
| 20260510121734 | 15 | 263 | 0.0 | 0.0 | 0.00 | 0.00 | 0.00 | 69 | 1014.5 |
| 20260510121232 | 15 | 276 | 11.3 | 14.5 | 0.00 | 0.00 | 0.00 | 69 | 1014.2 |
| 20260510120724 | 14 | 272 | 0.0 | 0.0 | 0.00 | 0.00 | 0.00 | 72 | 1014.0 |
| 20260510120220 | 13 | 315 | 6.4 | 11.3 | 0.00 | 0.00 | 0.00 | 72 | 1014.0 |
| 20260510115716 | 13 | 287 | 1.6 | 3.2 | 0.00 | 0.00 | 0.00 | 74 | 1014.0 |
| 20260510115214 | 13 | 285 | 0.0 | 0.0 | 0.00 | 0.00 | 0.00 | 74 | 1013.9 |
| 20260510114709 | 13 | 282 | 1.6 | 8.0 | 0.00 | 0.00 | 0.00 | 74 | 1013.8 |
| 20260510114207 | 13 | 278 | 0.0 | 0.0 | 0.00 | 0.00 | 0.00 | 75 | 1013.8 |
| 20260510113701 | 13 | 257 | 0.0 | 3.2 | 0.00 | 0.00 | 0.00 | 75 | 1013.8 |
| 20260510113158 | 13 | 252 | 3.2 | 11.3 | 0.00 | 0.00 | 0.00 | 75 | 1013.7 |
| 20260510112654 | 12 | 303 | 11.3 | 12.9 | 0.00 | 0.00 | 0.00 | 76 | 1013.9 |
| 20260510112151 | 12 | 312 | 6.4 | 9.7 | 0.00 | 0.00 | 0.00 | 77 | 1013.9 |
| 20260510111642 | 12 | 299 | 3.2 | 8.0 | 0.00 | 0.00 | 0.00 | 77 | 1013.8 |
| 20260510111138 | 12 | 305 | 9.7 | 14.5 | 0.00 | 0.00 | 0.00 | 78 | 1013.8 |
| 20260510110633 | 12 | 272 | 4.8 | 9.7 | 0.00 | 0.00 | 0.00 | 79 | 1013.7 |
| 20260510110131 | 12 | 350 | 0.0 | 1.6 | 0.00 | 0.00 | 0.00 | 79 | 1013.7 |
| 20260510105626 | 12 | 317 | 4.8 | 8.0 | 0.00 | 0.00 | 0.00 | 80 | 1013.5 |
| 20260510105121 | 12 | 299 | 4.8 | 9.7 | 0.00 | 0.00 | 0.00 | 80 | 1013.4 |
| 20260510104618 | 12 | 284 | 8.0 | 12.9 | 0.00 | 0.00 | 0.00 | 81 | 1013.3 |
| 20260510104115 | 12 | 300 | 8.0 | 11.3 | 0.00 | 0.00 | 0.00 | 81 | 1013.4 |
| 20260510103612 | 11 | 310 | 11.3 | 12.9 | 0.00 | 0.00 | 0.00 | 82 | 1013.4 |
| 20260510103108 | 11 | 295 | 8.0 | 11.3 | 0.00 | 0.00 | 0.00 | 82 | 1013.3 |
| 20260510102603 | 11 | 306 | 0.0 | 0.0 | 0.00 | 0.00 | 0.00 | 83 | 1013.1 |
| 20260510102059 | 11 | 295 | 8.0 | 11.3 | 0.00 | 0.00 | 0.00 | 83 | 1013.3 |
| 20260510101557 | 11 | 297 | 12.9 | 14.5 | 0.00 | 0.00 | 0.00 | 83 | 1012.8 |
| 20260510101055 | 11 | 302 | 11.3 | 12.9 | 0.00 | 0.00 | 0.00 | 82 | 1012.7 |
| 20260510100551 | 11 | 322 | 8.0 | 11.3 | 0.00 | 0.00 | 0.00 | 83 | 1012.8 |
| 20260510100049 | 11 | 328 | 8.0 | 9.7 | 0.00 | 0.00 | 0.00 | 83 | 1012.7 |
| 20260510095545 | 11 | 310 | 11.3 | 12.9 | 0.00 | 0.00 | 0.00 | 83 | 1012.7 |
| 20260510095044 | 11 | 276 | 4.8 | 9.7 | 0.00 | 0.00 | 0.00 | 83 | 1012.7 |
| 20260510094544 | 11 | 295 | 14.5 | 14.5 | 0.00 | 0.00 | 0.00 | 83 | 1012.6 |
| 20260510094039 | 11 | 293 | 3.2 | 9.7 | 0.00 | 0.00 | 0.00 | 83 | 1012.6 |
| 20260510093535 | 11 | 313 | 9.7 | 11.3 | 0.00 | 0.00 | 0.00 | 83 | 1012.5 |
| 20260510093033 | 11 | 298 | 6.4 | 12.9 | 0.00 | 0.00 | 0.00 | 83 | 1012.5 |
| 20260510092530 | 12 | 297 | 4.8 | 9.7 | 0.00 | 0.00 | 0.00 | 82 | 1012.6 |
| 20260510092029 | 12 | 304 | 6.4 | 8.0 | 0.00 | 0.00 | 0.00 | 81 | 1012.6 |
| 20260510091526 | 12 | 302 | 6.4 | 9.7 | 0.00 | 0.00 | 0.00 | 80 | 1012.4 |
| 20260510091022 | 12 | 284 | 6.4 | 11.3 | 0.00 | 0.00 | 0.00 | 80 | 1012.2 |
| 20260510090519 | 12 | 275 | 3.2 | 9.7 | 0.00 | 0.00 | 0.00 | 79 | 1012.2 |
| 20260510090015 | 12 | 309 | 9.7 | 14.5 | 0.00 | 0.00 | 0.00 | 79 | 1012.2 |
| 20260510085515 | 12 | 336 | 1.6 | 3.2 | 0.00 | 0.00 | 0.00 | 79 | 1012.4 |
| 20260510085012 | 12 | 289 | 6.4 | 11.3 | 0.00 | 0.00 | 0.00 | 79 | 1012.1 |
| 20260510084508 | 12 | 348 | 8.0 | 11.3 | 0.00 | 0.00 | 0.00 | 80 | 1011.9 |
| 20260510084005 | 12 | 261 | 0.0 | 3.2 | 0.00 | 0.00 | 0.00 | 80 | 1012.3 |
| 20260510083502 | 12 | 36 | 0.0 | 0.0 | 0.00 | 0.00 | 0.00 | 79 | 1011.9 |
| 20260510082957 | 12 | 294 | 19.3 | 25.7 | 0.00 | 0.00 | 0.00 | 80 | 1011.9 |
| 20260510082455 | 12 | 325 | 1.6 | 4.8 | 0.00 | 0.00 | 0.00 | 79 | 1012.1 |
| 20260510081955 | 12 | 304 | 6.4 | 12.9 | 0.00 | 0.00 | 0.00 | 79 | 1011.9 |
| 20260510081450 | 12 | 301 | 9.7 | 12.9 | 0.00 | 0.00 | 0.00 | 80 | 1011.8 |
| 20260510080947 | 12 | 15 | 3.2 | 8.0 | 0.00 | 0.00 | 0.00 | 80 | 1011.8 |
| 20260510080445 | 12 | 257 | 0.0 | 1.6 | 0.00 | 0.00 | 0.00 | 80 | 1011.8 |
| 20260510075942 | 12 | 312 | 8.0 | 11.3 | 0.00 | 0.00 | 0.00 | 80 | 1011.7 |
| 20260510075440 | 12 | 3 | 1.6 | 8.0 | 0.00 | 0.00 | 0.00 | 80 | 1011.7 |
| 20260510074937 | 12 | 296 | 6.4 | 11.3 | 0.00 | 0.00 | 0.00 | 80 | 1011.8 |
| 20260510074434 | 12 | 313 | 8.0 | 16.1 | 0.00 | 0.00 | 0.00 | 80 | 1011.6 |
| 20260510073930 | 12 | 57 | 1.6 | 9.7 | 0.00 | 0.00 | 0.00 | 80 | 1011.8 |
| 20260510073426 | 12 | 303 | 0.0 | 1.6 | 0.00 | 0.00 | 0.00 | 80 | 1011.6 |
| 20260510072922 | 12 | 311 | 6.4 | 11.3 | 0.00 | 0.00 | 0.00 | 80 | 1011.7 |
| 20260510072420 | 12 | 347 | 0.0 | 0.0 | 0.00 | 0.00 | 0.00 | 81 | 1011.6 |
| 20260510071915 | 12 | 271 | 12.9 | 22.5 | 0.00 | 0.00 | 0.00 | 83 | 1011.5 |
| 20260510071411 | 11 | 305 | 4.8 | 9.7 | 0.00 | 0.00 | 0.00 | 84 | 1012.1 |
| 20260510070910 | 11 | 305 | 8.0 | 9.7 | 0.00 | 0.00 | 0.00 | 84 | 1011.8 |
| 20260510070407 | 11 | 234 | 1.6 | 3.2 | 0.00 | 0.00 | 0.00 | 84 | 1011.8 |
| 20260510065902 | 11 | 274 | 0.0 | 1.6 | 0.00 | 0.00 | 0.00 | 84 | 1011.7 |
| 20260510065359 | 11 | 27 | 8.0 | 11.3 | 0.00 | 0.00 | 0.00 | 84 | 1011.7 |
| 20260510064855 | 12 | 302 | 1.6 | 3.2 | 0.00 | 0.00 | 0.00 | 84 | 1011.5 |
| 20260510064353 | 12 | 322 | 8.0 | 11.3 | 0.00 | 0.00 | 0.00 | 83 | 1011.8 |
| 20260510063849 | 12 | 278 | 8.0 | 14.5 | 0.00 | 0.00 | 0.00 | 83 | 1011.8 |
| 20260510063346 | 12 | 257 | 9.7 | 12.9 | 0.00 | 0.00 | 0.00 | 83 | 1011.7 |
| 20260510062843 | 12 | 310 | 11.3 | 14.5 | 0.00 | 0.00 | 0.00 | 83 | 1011.6 |
| 20260510062338 | 12 | 288 | 17.7 | 22.5 | 0.00 | 0.00 | 0.00 | 82 | 1011.5 |
| 20260510061833 | 12 | 353 | 3.2 | 11.3 | 0.00 | 0.00 | 0.00 | 82 | 1011.8 |
| 20260510061331 | 12 | 305 | 4.8 | 11.3 | 0.00 | 0.00 | 0.00 | 82 | 1011.6 |
| 20260510060826 | 12 | 286 | 11.3 | 16.1 | 0.00 | 0.00 | 0.00 | 83 | 1011.5 |
| 20260510060324 | 12 | 319 | 9.7 | 12.9 | 0.00 | 0.00 | 0.00 | 82 | 1011.5 |
| 20260510055821 | 12 | 328 | 1.6 | 4.8 | 0.00 | 0.00 | 0.00 | 83 | 1011.8 |
| 20260510055319 | 12 | 301 | 9.7 | 12.9 | 0.00 | 0.00 | 0.00 | 82 | 1011.8 |
| 20260510054819 | 12 | 8 | 8.0 | 14.5 | 0.00 | 0.00 | 0.00 | 82 | 1011.6 |
| 20260510054315 | 12 | 4 | 8.0 | 11.3 | 0.00 | 0.00 | 0.00 | 83 | 1011.6 |
| 20260510053809 | 12 | 320 | 9.7 | 12.9 | 0.00 | 0.00 | 0.00 | 82 | 1011.9 |
| 20260510053300 | 12 | 332 | 3.2 | 9.7 | 0.00 | 0.00 | 0.00 | 83 | 1011.9 |
| 20260510052756 | 12 | 301 | 6.4 | 11.3 | 0.00 | 0.00 | 0.00 | 82 | 1011.9 |
| 20260510052251 | 12 | 292 | 8.0 | 12.9 | 0.00 | 0.00 | 0.00 | 81 | 1011.9 |
| 20260510051748 | 12 | 269 | 11.3 | 14.5 | 0.00 | 0.00 | 0.00 | 82 | 1011.6 |
| 20260510051239 | 12 | 316 | 3.2 | 8.0 | 0.00 | 0.00 | 0.00 | 82 | 1011.9 |
| 20260510050736 | 12 | 321 | 6.4 | 12.9 | 0.00 | 0.00 | 0.00 | 81 | 1011.7 |
| 20260510050233 | 12 | 309 | 8.0 | 11.3 | 0.00 | 0.00 | 0.00 | 81 | 1011.7 |
| 20260510045730 | 12 | 306 | 9.7 | 12.9 | 0.00 | 0.00 | 0.00 | 82 | 1011.7 |
| 20260510045226 | 12 | 30 | 0.0 | 0.0 | 0.00 | 0.00 | 0.00 | 81 | 1011.9 |
| 20260510044723 | 12 | 349 | 4.8 | 9.7 | 0.00 | 0.00 | 0.00 | 81 | 1011.8 |
| 20260510044221 | 12 | 35 | 0.0 | 0.0 | 0.00 | 0.00 | 0.00 | 80 | 1011.7 |
| 20260510043716 | 12 | 245 | 0.0 | 0.0 | 0.00 | 0.00 | 0.00 | 79 | 1012.1 |
| 20260510043213 | 12 | 310 | 8.0 | 12.9 | 0.00 | 0.00 | 0.00 | 79 | 1011.9 |
| 20260510042710 | 12 | 277 | 12.9 | 16.1 | 0.00 | 0.00 | 0.00 | 79 | 1011.9 |
| 20260510042206 | 12 | 292 | 6.4 | 9.7 | 0.00 | 0.00 | 0.00 | 79 | 1011.8 |
| 20260510041703 | 12 | 294 | 4.8 | 12.9 | 0.00 | 0.00 | 0.00 | 78 | 1011.8 |
| 20260510041201 | 12 | 296 | 14.5 | 16.1 | 0.00 | 0.00 | 0.00 | 78 | 1012.1 |
| 20260510040657 | 12 | 296 | 11.3 | 12.9 | 0.00 | 0.00 | 0.00 | 78 | 1011.8 |
| 20260510040154 | 12 | 276 | 8.0 | 11.3 | 0.00 | 0.00 | 0.00 | 78 | 1011.8 |
| 20260510035650 | 13 | 305 | 4.8 | 8.0 | 0.00 | 0.00 | 0.00 | 77 | 1011.6 |
| 20260510035145 | 12 | 285 | 6.4 | 11.3 | 0.00 | 0.00 | 0.00 | 77 | 1011.6 |
| 20260510034642 | 12 | 310 | 0.0 | 0.0 | 0.00 | 0.00 | 0.00 | 77 | 1011.8 |
| 20260510034139 | 13 | 300 | 1.6 | 3.2 | 0.00 | 0.00 | 0.00 | 77 | 1011.6 |
| 20260510033635 | 13 | 292 | 8.0 | 9.7 | 0.00 | 0.00 | 0.00 | 76 | 1011.7 |
| 20260510033133 | 13 | 313 | 14.5 | 17.7 | 0.00 | 0.00 | 0.00 | 76 | 1011.8 |
| 20260510032630 | 13 | 332 | 1.6 | 4.8 | 0.00 | 0.00 | 0.00 | 76 | 1011.8 |
| 20260510032125 | 13 | 316 | 3.2 | 8.0 | 0.00 | 0.00 | 0.00 | 76 | 1011.7 |
| 20260510031620 | 13 | 298 | 1.6 | 4.8 | 0.00 | 0.00 | 0.00 | 76 | 1011.9 |
| 20260510031117 | 13 | 321 | 6.4 | 9.7 | 0.00 | 0.00 | 0.00 | 76 | 1011.6 |
| 20260510030611 | 13 | 315 | 9.7 | 11.3 | 0.00 | 0.00 | 0.00 | 75 | 1011.7 |
| 20260510030109 | 12 | 249 | 0.0 | 0.0 | 0.00 | 0.00 | 0.00 | 75 | 1011.8 |
| 20260510025606 | 13 | 304 | 0.0 | 0.0 | 0.00 | 0.00 | 0.00 | 75 | 1011.8 |
| 20260510025104 | 12 | 355 | 3.2 | 9.7 | 0.00 | 0.00 | 0.00 | 75 | 1011.8 |
| 20260510024600 | 12 | 298 | 11.3 | 14.5 | 0.00 | 0.00 | 0.00 | 75 | 1012.1 |
| 20260510024057 | 12 | 329 | 3.2 | 4.8 | 0.00 | 0.00 | 0.00 | 75 | 1011.8 |
| 20260510023553 | 12 | 310 | 0.0 | 0.0 | 0.00 | 0.00 | 0.00 | 74 | 1011.8 |
| 20260510023050 | 13 | 312 | 0.0 | 0.0 | 0.00 | 0.00 | 0.00 | 74 | 1011.7 |
| 20260510022549 | 13 | 357 | 0.0 | 0.0 | 0.00 | 0.00 | 0.00 | 73 | 1011.8 |
| 20260510022044 | 13 | 329 | 0.0 | 0.0 | 0.00 | 0.00 | 0.00 | 73 | 1012.1 |
| 20260510021540 | 13 | 253 | 0.0 | 0.0 | 0.00 | 0.00 | 0.00 | 72 | 1011.5 |
| 20260510021038 | 13 | 308 | 0.0 | 0.0 | 0.00 | 0.00 | 0.00 | 72 | 1011.5 |
| 20260510020532 | 13 | 310 | 0.0 | 0.0 | 0.00 | 0.00 | 0.00 | 72 | 1011.6 |
| 20260510020028 | 13 | 283 | 0.0 | 0.0 | 0.00 | 0.00 | 0.00 | 72 | 1011.3 |
| 20260510015518 | 13 | 297 | 0.0 | 0.0 | 0.00 | 0.00 | 0.00 | 71 | 1011.5 |
| 20260510015014 | 13 | 238 | 0.0 | 0.0 | 0.00 | 0.00 | 0.00 | 72 | 1011.3 |
| 20260510014511 | 13 | 283 | 0.0 | 0.0 | 0.00 | 0.00 | 0.00 | 71 | 1011.1 |
| 20260510014009 | 13 | 355 | 0.0 | 0.0 | 0.00 | 0.00 | 0.00 | 71 | 1011.1 |
| 20260510013508 | 13 | 313 | 0.0 | 0.0 | 0.00 | 0.00 | 0.00 | 70 | 1011.0 |
| 20260510013004 | 13 | 342 | 0.0 | 0.0 | 0.00 | 0.00 | 0.00 | 70 | 1010.8 |
| 20260510012458 | 13 | 341 | 0.0 | 0.0 | 0.00 | 0.00 | 0.00 | 70 | 1010.5 |
| 20260510011954 | 13 | 4 | 0.0 | 0.0 | 0.00 | 0.00 | 0.00 | 69 | 1010.7 |
| 20260510011449 | 13 | 300 | 0.0 | 0.0 | 0.00 | 0.00 | 0.00 | 69 | 1010.7 |
| 20260510010945 | 13 | 312 | 0.0 | 0.0 | 0.00 | 0.00 | 0.00 | 69 | 1010.5 |
| 20260510010443 | 13 | 29 | 0.0 | 0.0 | 0.00 | 0.00 | 0.00 | 68 | 1010.7 |
| 20260510005939 | 13 | 303 | 0.0 | 0.0 | 0.00 | 0.00 | 0.00 | 68 | 1010.6 |
| 20260510005435 | 13 | 339 | 0.0 | 0.0 | 0.00 | 0.00 | 0.00 | 67 | 1010.6 |
| 20260510004933 | 13 | 6 | 0.0 | 0.0 | 0.00 | 0.00 | 0.00 | 67 | 1010.5 |
| 20260510004430 | 13 | 296 | 0.0 | 0.0 | 0.00 | 0.00 | 0.00 | 66 | 1010.4 |
| 20260510003929 | 13 | 307 | 4.8 | 9.7 | 0.00 | 0.00 | 0.00 | 66 | 1010.1 |
| 20260510003425 | 14 | 336 | 0.0 | 0.0 | 0.00 | 0.00 | 0.00 | 66 | 1010.5 |
| 20260510002924 | 14 | 302 | 0.0 | 1.6 | 0.00 | 0.00 | 0.00 | 65 | 1010.5 |
| 20260510002421 | 14 | 5 | 1.6 | 4.8 | 0.00 | 0.00 | 0.00 | 64 | 1010.2 |
| 20260510001918 | 15 | 23 | 0.0 | 0.0 | 0.00 | 0.00 | 0.00 | 64 | 1010.2 |
| 20260510001415 | 15 | 317 | 0.0 | 1.6 | 0.00 | 0.00 | 0.00 | 63 | 1010.3 |
| 20260510000912 | 15 | 299 | 0.0 | 1.6 | 0.00 | 0.00 | 0.00 | 62 | 1010.2 |
| 20260510000411 | 15 | 271 | 9.7 | 16.1 | 0.00 | 0.00 | 0.00 | 62 | 1010.2 |
| 20260509235905 | 15 | 305 | 8.0 | 14.5 | 0.00 | 0.00 | 0.00 | 61 | 1009.9 |
| 20260509235402 | 15 | 330 | 9.7 | 12.9 | 0.00 | 0.00 | 0.00 | 61 | 1009.9 |
| 20260509234858 | 15 | 333 | 4.8 | 11.3 | 0.00 | 0.00 | 0.00 | 61 | 1009.6 |
| 20260509234355 | 15 | 284 | 0.0 | 4.8 | 0.00 | 0.00 | 0.00 | 60 | 1009.9 |
| 20260509233853 | 16 | 297 | 8.0 | 11.3 | 0.00 | 0.00 | 0.00 | 59 | 1009.8 |
| 20260509233351 | 16 | 274 | 4.8 | 9.7 | 0.00 | 0.00 | 0.00 | 59 | 1009.8 |
| 20260509232846 | 16 | 54 | 1.6 | 9.7 | 0.00 | 0.00 | 0.00 | 59 | 1009.8 |
| 20260509232344 | 16 | 305 | 14.5 | 17.7 | 0.00 | 0.00 | 0.00 | 58 | 1009.8 |
| 20260509231840 | 16 | 333 | 1.6 | 9.7 | 0.00 | 0.00 | 0.00 | 58 | 1009.8 |
| 20260509231337 | 16 | 270 | 0.0 | 0.0 | 0.00 | 0.00 | 0.00 | 58 | 1009.5 |
| 20260509230835 | 16 | 302 | 16.1 | 20.9 | 0.00 | 0.00 | 0.00 | 58 | 1009.2 |
| 20260509230332 | 16 | 266 | 22.5 | 29.0 | 0.00 | 0.00 | 0.00 | 57 | 1009.3 |
| 20260509225826 | 16 | 287 | 8.0 | 9.7 | 0.00 | 0.00 | 0.00 | 58 | 1009.5 |
| 20260509225324 | 16 | 282 | 8.0 | 11.3 | 0.00 | 0.00 | 0.00 | 58 | 1009.4 |
| 20260509224820 | 16 | 331 | 0.0 | 0.0 | 0.00 | 0.00 | 0.00 | 57 | 1009.6 |
| 20260509224316 | 16 | 272 | 14.5 | 27.4 | 0.00 | 0.00 | 0.00 | 57 | 1009.5 |
| 20260509223813 | 16 | 284 | 20.9 | 22.5 | 0.00 | 0.00 | 0.00 | 55 | 1009.5 |
| 20260509223310 | 16 | 289 | 17.7 | 17.7 | 0.00 | 0.00 | 0.00 | 56 | 1009.9 |
| 20260509222807 | 16 | 293 | 14.5 | 24.1 | 0.00 | 0.00 | 0.00 | 56 | 1009.9 |
| 20260509222306 | 16 | 274 | 8.0 | 12.9 | 0.00 | 0.00 | 0.00 | 55 | 1009.8 |
| 20260509221758 | 17 | 276 | 22.5 | 25.7 | 0.00 | 0.00 | 0.00 | 54 | 1009.8 |
| 20260509221255 | 16 | 293 | 8.0 | 16.1 | 0.00 | 0.00 | 0.00 | 55 | 1010.1 |
| 20260509220750 | 16 | 15 | 0.0 | 1.6 | 0.00 | 0.00 | 0.00 | 56 | 1009.8 |
| 20260509220247 | 16 | 298 | 8.0 | 14.5 | 0.00 | 0.00 | 0.00 | 54 | 1010.0 |
| 20260509215742 | 17 | 301 | 9.7 | 12.9 | 0.00 | 0.00 | 0.00 | 54 | 1009.8 |
| 20260509215239 | 16 | 329 | 0.0 | 0.0 | 0.00 | 0.00 | 0.00 | 54 | 1010.0 |
| 20260509214736 | 16 | 308 | 1.6 | 4.8 | 0.00 | 0.00 | 0.00 | 56 | 1009.9 |
| 20260509214234 | 16 | 257 | 14.5 | 16.1 | 0.00 | 0.00 | 0.00 | 53 | 1009.8 |
| 20260509213730 | 16 | 328 | 12.9 | 20.9 | 0.00 | 0.00 | 0.00 | 53 | 1010.1 |
| 20260509213226 | 16 | 279 | 9.7 | 16.1 | 0.00 | 0.00 | 0.00 | 52 | 1009.9 |
| 20260509212723 | 17 | 306 | 0.0 | 1.6 | 0.00 | 0.00 | 0.00 | 53 | 1009.6 |
| 20260509212220 | 17 | 270 | 3.2 | 8.0 | 0.00 | 0.00 | 0.00 | 52 | 1009.5 |
| 20260509211716 | 16 | 308 | 1.6 | 3.2 | 0.00 | 0.00 | 0.00 | 53 | 1009.8 |
| 20260509211213 | 16 | 294 | 9.7 | 11.3 | 0.00 | 0.00 | 0.00 | 55 | 1009.5 |
| 20260509210709 | 16 | 321 | 0.0 | 0.0 | 0.00 | 0.00 | 0.00 | 56 | 1009.4 |
| 20260509210202 | 16 | 289 | 17.7 | 22.5 | 0.00 | 0.00 | 0.00 | 54 | 1009.4 |
| 20260509205701 | 16 | 297 | 3.2 | 8.0 | 0.00 | 0.00 | 0.00 | 53 | 1009.6 |
| 20260509205201 | 16 | 310 | 1.6 | 4.8 | 0.00 | 0.00 | 0.00 | 54 | 1009.3 |
| 20260509204658 | 16 | 284 | 14.5 | 22.5 | 0.00 | 0.00 | 0.00 | 52 | 1009.5 |
| 20260509204154 | 17 | 347 | 9.7 | 16.1 | 0.00 | 0.00 | 0.00 | 51 | 1009.3 |
| 20260509203650 | 16 | 275 | 0.0 | 0.0 | 0.00 | 0.00 | 0.00 | 52 | 1009.2 |
| 20260509203148 | 17 | 275 | 19.3 | 25.7 | 0.00 | 0.00 | 0.00 | 49 | 1009.2 |
| 20260509202643 | 17 | 21 | 6.4 | 14.5 | 0.00 | 0.00 | 0.00 | 49 | 1008.9 |
| 20260509202138 | 17 | 292 | 6.4 | 9.7 | 0.00 | 0.00 | 0.00 | 48 | 1009.2 |
| 20260509201634 | 17 | 234 | 1.6 | 9.7 | 0.00 | 0.00 | 0.00 | 49 | 1008.9 |
| 20260509201131 | 16 | 261 | 4.8 | 12.9 | 0.00 | 0.00 | 0.00 | 51 | 1009.0 |
| 20260509200626 | 17 | 279 | 19.3 | 22.5 | 0.00 | 0.00 | 0.00 | 47 | 1008.9 |
| 20260509200117 | 17 | 322 | 0.0 | 0.0 | 0.00 | 0.00 | 0.00 | 51 | 1009.2 |
| 20260509195613 | 16 | 317 | 6.4 | 11.3 | 0.00 | 0.00 | 0.00 | 53 | 1009.1 |
| 20260509195108 | 16 | 302 | 8.0 | 12.9 | 0.00 | 0.00 | 0.00 | 52 | 1009.1 |
| 20260509194607 | 16 | 312 | 3.2 | 4.8 | 0.00 | 0.00 | 0.00 | 51 | 1008.8 |
| 20260509194105 | 16 | 241 | 0.0 | 0.0 | 0.00 | 0.00 | 0.00 | 52 | 1008.9 |
| 20260509193601 | 17 | 272 | 9.7 | 11.3 | 0.00 | 0.00 | 0.00 | 50 | 1008.7 |
| 20260509193057 | 16 | 107 | 0.0 | 0.0 | 0.00 | 0.00 | 0.00 | 51 | 1008.9 |